Clarkton, North Carolina
Current Conditions -  °F | °C
As of 12:35 PM on Saturday 25 Oct 2014 (Local Time) from KEYF Reporting Station
Clear Clear  
Wind Chill: 67°   Ceiling: Unl
Heat Index: 67°   Visibility: 10mi
Dew Point: 48°   Wind: 0mph
Humidity: 51%   Direction: NA
Pressure: 29.99"   Gusts: NA
Location:  34.49°N, 78.66°W
Report Text: KEYF 251635Z AUTO 00000KT 10SM CLR 20/09 A2999 RMK AO2 T01950091
Loading
Personal Weather Stations






























Interactive Weather Map New forecast layout! Learn more

10-Day Weather Forecast

Advertisements
Track Severe Weather on mobile